Time;durP1;ratioP1;P1;durP2;ratioP2;P2;SDS_P1;SDS_P2;PMS_P1;PMS_P2;Temp;Humidity;BMP_temperature;BMP_pressure;BME280_temperature;BME280_humidity;BME280_pressure;Samples;Min_cycle;Max_cycle;Signal;HPM_P1;HPM_P2
2023/08/06 00:00:38;;;;;;;12.23;6.63;;;;;;;20.04;100.00;93943.69;5081178;28;20031;-78
2023/08/06 00:03:04;;;;;;;8.93;5.82;;;;;;;19.71;100.00;93970.28;5058142;28;20032;-78
2023/08/06 00:05:29;;;;;;;13.43;6.25;;;;;;;19.93;100.00;94002.53;5042243;28;20143;-77
2023/08/06 00:07:55;;;;;;;12.35;6.75;;;;;;;20.15;100.00;94010.31;5058178;28;20485;-78
2023/08/06 00:10:20;;;;;;;11.23;6.53;;;;;;;20.07;100.00;94019.44;5059796;28;20028;-79
2023/08/06 00:12:45;;;;;;;9.98;5.60;;;;;;;19.91;100.00;94039.56;5058797;28;20040;-77
2023/08/06 00:15:11;;;;;;;10.63;5.75;;;;;;;19.80;100.00;93990.59;5058386;28;20031;-78
2023/08/06 00:17:37;;;;;;;7.82;6.10;;;;;;;19.89;100.00;94007.50;5058262;28;20557;-78
2023/08/06 00:20:04;;;;;;;10.68;6.20;;;;;;;19.86;100.00;94029.03;5073869;28;20032;-78
2023/08/06 00:22:33;;;;;;;11.73;6.28;;;;;;;19.87;100.00;94029.81;5058568;28;20494;-77
2023/08/06 00:24:59;;;;;;;6.82;5.70;;;;;;;19.89;100.00;94007.50;5058080;28;20059;-78
2023/08/06 00:27:25;;;;;;;5.75;5.25;;;;;;;19.58;100.00;93992.53;5058688;28;20078;-78
2023/08/06 00:29:50;;;;;;;8.73;5.97;;;;;;;19.77;100.00;93998.19;5058014;28;20021;-79
2023/08/06 00:32:17;;;;;;;9.88;5.97;;;;;;;19.96;100.00;93994.94;5066434;28;20031;-78
2023/08/06 00:34:42;;;;;;;6.72;6.13;;;;;;;19.80;100.00;94014.25;5054851;28;20038;-79
2023/08/06 00:37:07;;;;;;;7.35;5.90;;;;;;;19.79;100.00;94049.47;5058242;28;20592;-79
2023/08/06 00:39:33;;;;;;;9.65;6.45;;;;;;;19.76;100.00;94049.16;5058008;28;20700;-80
2023/08/06 00:41:58;;;;;;;7.93;6.28;;;;;;;19.33;100.00;94029.81;5057781;28;20021;-79
2023/08/06 00:44:24;;;;;;;7.55;6.20;;;;;;;19.77;100.00;94063.91;5049227;28;20028;-79
2023/08/06 00:46:49;;;;;;;6.53;5.85;;;;;;;19.40;100.00;94030.44;5060460;28;20029;-79
2023/08/06 00:49:15;;;;;;;8.20;7.18;;;;;;;19.53;100.00;94066.03;5059351;28;20103;-80
2023/08/06 00:51:40;;;;;;;13.35;8.30;;;;;;;19.55;100.00;94081.56;5058084;28;20086;-80
2023/08/06 00:54:07;;;;;;;7.28;6.38;;;;;;;19.23;100.00;94113.72;5062098;28;20035;-80
2023/08/06 00:56:35;;;;;;;7.47;6.88;;;;;;;19.62;100.00;94092.66;5067585;28;20034;-79
2023/08/06 00:59:01;;;;;;;7.65;6.45;;;;;;;19.75;100.00;94071.22;5061525;28;20142;-79
2023/08/06 01:01:26;;;;;;;7.20;6.38;;;;;;;19.36;100.00;94029.31;5061829;28;20059;-80
2023/08/06 01:03:53;;;;;;;9.10;6.90;;;;;;;19.70;100.00;94086.97;5061379;28;20085;-80
2023/08/06 01:06:31;;;;;;;12.10;7.72;;;;;;;19.63;100.00;94091.59;5069525;28;20384;-79
2023/08/06 01:08:58;;;;;;;10.05;7.05;;;;;;;19.81;100.00;94120.19;5065191;28;20146;-80
2023/08/06 01:11:38;;;;;;;8.52;7.72;;;;;;;19.76;100.00;94106.97;5061282;28;20043;-80
2023/08/06 01:14:28;;;;;;;10.90;8.05;;;;;;;19.66;100.00;94078.78;5072928;28;20109;-79
2023/08/06 01:16:54;;;;;;;10.73;7.10;;;;;;;19.75;100.00;94105.38;5065637;28;20025;-80
2023/08/06 01:19:21;;;;;;;10.98;7.75;;;;;;;19.82;100.00;94088.38;5073448;28;20107;-80
2023/08/06 01:21:46;;;;;;;7.75;7.05;;;;;;;19.63;100.00;94067.97;5046513;28;20029;-80
2023/08/06 01:24:11;;;;;;;8.02;7.25;;;;;;;19.42;100.00;94002.06;5051093;28;20029;-80
2023/08/06 01:26:53;;;;;;;9.52;7.50;;;;;;;19.65;100.00;94000.97;5067329;28;20043;-80
2023/08/06 01:29:23;;;;;;;12.82;7.60;;;;;;;19.72;100.00;94021.78;5071697;28;20024;-80
2023/08/06 01:31:50;;;;;;;7.70;7.20;;;;;;;19.77;100.00;94032.38;5077569;28;20058;-80
2023/08/06 01:34:24;;;;;;;7.88;7.22;;;;;;;19.60;100.00;94029.03;5060855;28;20028;-80
2023/08/06 01:36:53;;;;;;;8.35;7.70;;;;;;;19.41;100.00;94041.75;5056509;28;20514;-80
2023/08/06 01:39:20;;;;;;;8.25;7.65;;;;;;;19.38;100.00;94019.38;5049020;28;20059;-80
2023/08/06 01:41:47;;;;;;;8.82;8.23;;;;;;;19.53;100.00;94023.19;5066332;28;20082;-81
2023/08/06 01:44:12;;;;;;;8.48;7.60;;;;;;;19.55;100.00;94063.16;5060863;28;20471;-81
2023/08/06 01:46:38;;;;;;;9.55;8.13;;;;;;;19.64;100.00;94072.19;5062066;28;20038;-81
2023/08/06 01:49:03;;;;;;;9.40;8.40;;;;;;;19.74;100.00;94088.06;5068962;28;20643;-81
2023/08/06 01:51:29;;;;;;;9.55;8.55;;;;;;;19.45;100.00;94043.63;5066113;28;20078;-81
2023/08/06 01:53:55;;;;;;;8.85;8.25;;;;;;;19.50;100.00;94048.13;5068688;28;20063;-82
2023/08/06 01:56:20;;;;;;;8.90;8.07;;;;;;;19.42;100.00;94030.19;5060344;28;20036;-81
2023/08/06 01:58:46;;;;;;;10.40;9.15;;;;;;;19.65;100.00;94032.50;5060256;28;20727;-80
2023/08/06 02:01:11;;;;;;;9.35;8.55;;;;;;;19.71;100.00;94064.91;5043586;28;20032;-81
2023/08/06 02:03:37;;;;;;;9.50;8.55;;;;;;;19.70;100.00;94050.16;5071353;28;20040;-80
2023/08/06 02:06:02;;;;;;;10.02;7.32;;;;;;;19.62;100.00;94061.13;5045834;28;20466;-81
2023/08/06 02:08:27;;;;;;;8.85;8.05;;;;;;;19.66;100.00;94085.84;5065606;28;20424;-81
2023/08/06 02:10:53;;;;;;;11.10;10.07;;;;;;;19.61;100.00;94096.31;5062915;28;20032;-81
2023/08/06 02:13:19;;;;;;;11.10;10.10;;;;;;;19.63;100.00;94112.63;5060013;28;20027;-82
2023/08/06 02:15:47;;;;;;;10.07;9.38;;;;;;;19.57;100.00;94087.34;5060582;28;20421;-81
2023/08/06 02:18:14;;;;;;;11.88;9.50;;;;;;;19.66;100.00;94070.09;5072846;28;20036;-80
2023/08/06 02:20:40;;;;;;;10.30;9.35;;;;;;;19.66;100.00;94059.56;5071344;28;20098;-80
2023/08/06 02:23:05;;;;;;;12.75;9.90;;;;;;;19.62;100.00;94072.41;5060497;28;20532;-81
2023/08/06 02:25:30;;;;;;;10.70;9.90;;;;;;;19.64;100.00;94101.88;5059715;28;20623;-80
2023/08/06 02:27:56;;;;;;;11.75;10.85;;;;;;;19.51;100.00;94098.84;5061433;28;20247;-81
2023/08/06 02:30:21;;;;;;;14.88;10.70;;;;;;;19.36;100.00;94099.44;5059614;28;20032;-81
2023/08/06 02:32:46;;;;;;;11.73;9.23;;;;;;;19.39;100.00;94091.06;5060446;28;20452;-80
2023/08/06 02:35:12;;;;;;;11.73;10.73;;;;;;;19.50;100.00;94095.41;5090098;28;20469;-81
2023/08/06 02:37:37;;;;;;;11.00;9.80;;;;;;;19.39;100.00;94136.50;5073058;28;20032;-80
2023/08/06 02:40:03;;;;;;;10.82;10.02;;;;;;;19.60;100.00;94140.19;5061010;28;20162;-80
2023/08/06 02:42:28;;;;;;;10.43;9.73;;;;;;;19.67;100.00;94126.88;5059757;28;20067;-80
2023/08/06 02:44:57;;;;;;;11.05;10.15;;;;;;;19.64;100.00;94116.84;5059666;28;20040;-80
2023/08/06 02:47:22;;;;;;;12.07;10.97;;;;;;;19.68;100.00;94144.22;5058299;28;20509;-80
2023/08/06 02:49:48;;;;;;;12.13;11.23;;;;;;;19.73;100.00;94162.66;5059378;28;20032;-80
2023/08/06 02:52:13;;;;;;;12.50;11.30;;;;;;;19.68;100.00;94137.13;5065377;28;20103;-81
2023/08/06 02:54:38;;;;;;;12.73;11.50;;;;;;;19.72;100.00;94135.59;5092094;28;20020;-79
2023/08/06 02:57:05;;;;;;;11.23;10.27;;;;;;;19.67;100.00;94118.97;5064651;28;20684;-78
2023/08/06 02:59:31;;;;;;;11.80;10.90;;;;;;;19.61;100.00;94128.66;5059326;28;20025;-79
2023/08/06 03:01:56;;;;;;;12.35;11.32;;;;;;;19.59;100.00;94148.31;5059196;28;20032;-80
2023/08/06 03:04:22;;;;;;;12.90;11.68;;;;;;;19.61;100.00;94135.75;5063255;28;20213;-80
2023/08/06 03:06:50;;;;;;;11.07;10.18;;;;;;;19.59;100.00;94124.66;5058936;28;20599;-78
2023/08/06 03:09:17;;;;;;;13.25;11.38;;;;;;;19.51;100.00;94146.13;5058757;28;20021;-78
2023/08/06 03:11:43;;;;;;;11.82;11.02;;;;;;;19.53;100.00;94150.09;5059357;28;20028;-79
2023/08/06 03:14:08;;;;;;;15.82;13.13;;;;;;;19.45;100.00;94156.59;5059845;28;20421;-80
2023/08/06 03:16:34;;;;;;;14.63;13.25;;;;;;;19.48;100.00;94188.66;5060883;28;20359;-80
2023/08/06 03:19:00;;;;;;;15.90;14.40;;;;;;;19.58;100.00;94186.94;5067277;28;20063;-79
2023/08/06 03:21:25;;;;;;;15.70;14.40;;;;;;;19.52;100.00;94159.03;5064203;28;20530;-80
2023/08/06 03:23:50;;;;;;;17.10;15.80;;;;;;;19.50;100.00;94142.69;5062696;28;20020;-79
2023/08/06 03:26:17;;;;;;;19.23;16.85;;;;;;;19.40;100.00;94108.44;5068572;28;20034;-79
2023/08/06 03:28:43;;;;;;;18.90;17.30;;;;;;;19.35;100.00;94135.41;5060399;28;20024;-80
2023/08/06 03:31:08;;;;;;;18.15;16.55;;;;;;;19.31;100.00;94272.72;5058345;28;20033;-78
2023/08/06 03:33:34;;;;;;;18.60;16.98;;;;;;;19.30;100.00;94355.94;5062014;28;20032;-78
2023/08/06 03:35:59;;;;;;;21.27;16.45;;;;;;;18.80;100.00;94475.81;5067548;28;20024;-80
2023/08/06 03:59:00;;;;;;;0.00;0.00;;;;;;;;;;5070226;27;1642358;-85
2023/08/06 04:01:25;;;;;;;0.00;0.00;;;;;;;;;;5122023;28;20027;-85
2023/08/06 04:05:09;;;;;;;0.00;0.00;;;;;;;;;;5088137;27;1411517;-85
2023/08/06 04:07:34;;;;;;;0.00;0.00;;;;;;;;;;5121495;28;20042;-87
2023/08/06 04:10:00;;;;;;;0.00;0.00;;;;;;;;;;5120320;27;20842;-84
2023/08/06 04:12:26;;;;;;;0.00;0.00;;;;;;;;;;5119429;27;20547;-82
2023/08/06 04:14:54;;;;;;;0.00;0.00;;;;;;;;;;5117082;27;20020;-81
2023/08/06 04:17:20;;;;;;;0.00;0.00;;;;;;;;;;5115550;27;20031;-80
2023/08/06 04:19:47;;;;;;;0.00;0.00;;;;;;;;;;5109386;28;20019;-80
2023/08/06 04:22:12;;;;;;;0.00;0.00;;;;;;;;;;5117238;27;20522;-79
2023/08/06 04:24:37;;;;;;;0.00;0.00;;;;;;;;;;5116926;28;20039;-77
2023/08/06 04:27:02;;;;;;;0.00;0.00;;;;;;;;;;5117839;28;20925;-76
2023/08/06 04:29:28;;;;;;;0.00;0.00;;;;;;;;;;5116406;28;20023;-75
2023/08/06 04:31:53;;;;;;;0.00;0.00;;;;;;;;;;5114889;28;20652;-75
2023/08/06 04:34:18;;;;;;;0.00;0.00;;;;;;;;;;5117628;28;20285;-75
2023/08/06 04:36:43;;;;;;;0.00;0.00;;;;;;;;;;5117122;28;20261;-75
2023/08/06 04:39:09;;;;;;;0.00;0.00;;;;;;;;;;5118708;28;20379;-75
2023/08/06 04:41:34;;;;;;;0.00;0.00;;;;;;;;;;5117060;28;20257;-75
2023/08/06 04:43:59;;;;;;;0.00;0.00;;;;;;;;;;5118242;27;20293;-75
2023/08/06 04:46:24;;;;;;;0.00;0.00;;;;;;;;;;5117291;28;20022;-75
2023/08/06 04:48:50;;;;;;;0.00;0.00;;;;;;;;;;5117545;28;20046;-75
2023/08/06 04:51:15;;;;;;;0.00;0.00;;;;;;;;;;5117408;28;20693;-75
2023/08/06 04:53:40;;;;;;;0.00;0.00;;;;;;;;;;5116574;28;20363;-76
2023/08/06 04:56:05;;;;;;;0.00;0.00;;;;;;;;;;5111978;28;20505;-76
2023/08/06 04:58:31;;;;;;;0.00;0.00;;;;;;;;;;5108132;28;20281;-76
2023/08/06 05:00:56;;;;;;;874.03;845.83;;;;;;;;;;5117837;28;20262;-77
2023/08/06 05:03:22;;;;;;;1999.90;999.90;;;;;;;;;;5100323;28;20516;-77
2023/08/06 05:05:47;;;;;;;1074.55;999.90;;;;;;;;;;5117983;27;20411;-77
2023/08/06 05:08:19;;;;;;;311.98;300.13;;;;;;;;;;5117071;28;20076;-77
2023/08/06 05:10:44;;;;;;;109.40;104.65;;;;;;;;;;5117064;27;20410;-77
2023/08/06 05:13:10;;;;;;;19.27;18.67;;;;;;;;;;5117379;27;20155;-79
2023/08/06 05:15:35;;;;;;;1.73;1.73;;;;;;;;;;5107566;28;20023;-78
2023/08/06 05:18:00;;;;;;;0.00;0.00;;;;;;;;;;5103880;28;20265;-79
2023/08/06 05:20:25;;;;;;;0.00;0.00;;;;;;;;;;5102439;28;20032;-79
2023/08/06 05:22:51;;;;;;;0.00;0.00;;;;;;;;;;5104406;28;20325;-77
2023/08/06 05:25:16;;;;;;;0.00;0.00;;;;;;;;;;5089095;28;20057;-79
2023/08/06 05:27:41;;;;;;;0.00;0.00;;;;;;;;;;5094008;28;20326;-78
2023/08/06 05:30:07;;;;;;;0.00;0.00;;;;;;;;;;5097993;28;20062;-77
2023/08/06 05:32:32;;;;;;;0.00;0.00;;;;;;;;;;5091099;28;20027;-76
2023/08/06 05:34:57;;;;;;;0.00;0.00;;;;;;;;;;5104258;28;20443;-77
2023/08/06 05:37:23;;;;;;;0.00;0.00;;;;;;;;;;5103555;28;20344;-77
2023/08/06 05:39:48;;;;;;;0.00;0.00;;;;;;;;;;5104469;28;20265;-81
2023/08/06 05:42:13;;;;;;;0.00;0.00;;;;;;;;;;5101032;28;20984;-80
2023/08/06 05:44:38;;;;;;;0.00;0.00;;;;;;;;;;5086227;28;20293;-80
2023/08/06 05:47:04;;;;;;;0.00;0.00;;;;;;;;;;5072507;28;20785;-79
2023/08/06 05:49:29;;;;;;;0.00;0.00;;;;;;;;;;5072133;28;20290;-81
2023/08/06 05:51:54;;;;;;;0.00;0.00;;;;;;;;;;5076932;28;20024;-81
2023/08/06 05:54:20;;;;;;;0.00;0.00;;;;;;;;;;5072910;28;20108;-81
2023/08/06 05:56:45;;;;;;;0.00;0.00;;;;;;;;;;5066501;28;20472;-83
2023/08/06 05:59:10;;;;;;;0.00;0.00;;;;;;;;;;5072093;28;20709;-82
2023/08/06 06:01:36;;;;;;;0.00;0.00;;;;;;;;;;5076608;28;20646;-83
2023/08/06 06:04:01;;;;;;;0.00;0.00;;;;;;;;;;5066699;28;20052;-83
2023/08/06 06:06:26;;;;;;;0.00;0.00;;;;;;;;;;5061841;28;20078;-85
2023/08/06 06:08:52;;;;;;;0.00;0.00;;;;;;;;;;5075998;28;20027;-83
2023/08/06 06:11:19;;;;;;;0.00;0.00;;;;;;;;;;5086646;28;20372;-82
2023/08/06 06:13:44;;;;;;;0.00;0.00;;;;;;;;;;5075884;28;20442;-81
2023/08/06 06:16:10;;;;;;;0.00;0.00;;;;;;;;;;5066542;28;20032;-82
2023/08/06 06:18:35;;;;;;;0.00;0.00;;;;;;;;;;5092819;28;20095;-82
2023/08/06 06:21:00;;;;;;;0.00;0.00;;;;;;;;;;5082245;28;20077;-82
2023/08/06 06:23:25;;;;;;;0.00;0.00;;;;;;;;;;5076878;28;20118;-84
2023/08/06 06:25:53;;;;;;;0.00;0.00;;;;;;;;;;5067750;28;20020;-83
2023/08/06 06:28:19;;;;;;;0.00;0.00;;;;;;;;;;5070000;28;20353;-82
2023/08/06 06:30:44;;;;;;;0.00;0.00;;;;;;;;;;5068529;28;20161;-81
2023/08/06 06:33:09;;;;;;;0.00;0.00;;;;;;;;;;5080580;28;20250;-80
2023/08/06 06:35:35;;;;;;;0.00;0.00;;;;;;;;;;5097688;28;20414;-81
2023/08/06 06:38:00;;;;;;;0.00;0.00;;;;;;;;;;5093585;27;20199;-81
2023/08/06 06:40:26;;;;;;;0.00;0.00;;;;;;;;;;5074913;28;20536;-79
2023/08/06 06:42:51;;;;;;;0.00;0.00;;;;;;;;;;5089297;28;20265;-80
2023/08/06 06:45:18;;;;;;;0.00;0.00;;;;;;;;;;5085565;28;20132;-80
2023/08/06 06:47:43;;;;;;;0.00;0.00;;;;;;;;;;5085124;28;20090;-79
2023/08/06 06:50:09;;;;;;;0.00;0.00;;;;;;;;;;5076233;28;20024;-79
2023/08/06 06:52:34;;;;;;;0.00;0.00;;;;;;;;;;5076834;28;20056;-79
2023/08/06 06:55:00;;;;;;;0.00;0.00;;;;;;;;;;5073525;28;20504;-80
2023/08/06 06:57:26;;;;;;;0.00;0.00;;;;;;;;;;5076967;28;20444;-79
2023/08/06 06:59:51;;;;;;;0.00;0.00;;;;;;;;;;5073904;28;20051;-79
2023/08/06 07:02:16;;;;;;;0.00;0.00;;;;;;;;;;5068547;28;20020;-79
2023/08/06 07:04:42;;;;;;;0.00;0.00;;;;;;;;;;5076036;28;20049;-80
2023/08/06 07:07:07;;;;;;;0.00;0.00;;;;;;;;;;5093348;28;20031;-79
2023/08/06 07:09:32;;;;;;;0.00;0.00;;;;;;;;;;5080601;28;20915;-78
2023/08/06 07:11:57;;;;;;;0.00;0.00;;;;;;;;;;5091125;28;20326;-80
2023/08/06 07:14:24;;;;;;;0.00;0.00;;;;;;;;;;5071006;28;20770;-80
2023/08/06 07:16:49;;;;;;;0.10;0.00;;;;;;;;;;5064732;28;20283;-78
2023/08/06 07:19:15;;;;;;;0.10;0.10;;;;;;;;;;5063658;28;20027;-79
2023/08/06 07:21:40;;;;;;;0.20;0.20;;;;;;;;;;5074942;28;20766;-79
2023/08/06 07:24:05;;;;;;;0.47;0.47;;;;;;;;;;5088752;28;20900;-79
2023/08/06 07:26:30;;;;;;;1.90;1.43;;;;;;;;;;5100240;28;20043;-79
2023/08/06 07:28:56;;;;;;;2.37;2.27;;;;;;;;;;5100392;28;20031;-84
2023/08/06 07:31:21;;;;;;;2.43;2.33;;;;;;;;;;5097614;28;20018;-78
2023/08/06 07:33:46;;;;;;;2.40;2.20;;;;;;;;;;5085475;28;20935;-79
2023/08/06 07:36:14;;;;;;;1.90;1.80;;;;;;;;;;5086315;28;20400;-79
2023/08/06 07:38:39;;;;;;;1.90;1.80;;;;;;;;;;5084313;28;20353;-77
2023/08/06 07:41:05;;;;;;;2.40;2.13;;;;;;;;;;5079151;28;20930;-77
2023/08/06 07:43:30;;;;;;;2.97;2.03;;;;;;;;;;5069647;28;20055;-78
2023/08/06 07:46:00;;;;;;;2.88;2.67;;;;;;;;;;5079519;28;20392;-78
2023/08/06 07:48:25;;;;;;;3.83;3.58;;;;;;;;;;5091737;28;20497;-75
2023/08/06 07:50:54;;;;;;;4.22;3.92;;;;;;;;;;5073830;28;20089;-75
2023/08/06 07:53:19;;;;;;;;;;;;;;;;;;5081710;28;20553;-77
2023/08/06 07:55:48;;;;;;;4.70;4.30;;;;;;;;;;5069784;28;20750;-76
2023/08/06 07:58:13;;;;;;;5.75;4.45;;;;;;;;;;5071139;28;20460;-76
2023/08/06 08:00:42;;;;;;;4.57;4.18;;;;;;;;;;5073866;28;20181;-75
2023/08/06 08:03:07;;;;;;;4.63;4.22;;;;;;;;;;5080101;28;20034;-76
2023/08/06 08:05:32;;;;;;;4.40;4.10;;;;;;;;;;5079671;28;20024;-76
2023/08/06 08:07:58;;;;;;;4.70;3.57;;;;;;;;;;5079527;28;20016;-76
2023/08/06 08:10:23;;;;;;;4.70;4.20;;;;;;;;;;5072636;28;20021;-75
2023/08/06 08:12:48;;;;;;;4.00;3.70;;;;;;;;;;5075980;28;20016;-76
2023/08/06 08:15:15;;;;;;;3.53;3.33;;;;;;;;;;5070719;28;21002;-76
2023/08/06 08:17:40;;;;;;;4.32;3.25;;;;;;;;;;5063023;28;20412;-76
2023/08/06 08:20:06;;;;;;;3.70;3.50;;;;;;;;;;5064505;28;20034;-76
2023/08/06 08:22:31;;;;;;;3.67;3.33;;;;;;;;;;5067208;28;20077;-75
2023/08/06 08:24:56;;;;;;;3.13;2.93;;;;;;;;;;5071019;28;20052;-76
2023/08/06 08:27:21;;;;;;;5.83;3.13;;;;;;;;;;5078142;28;20270;-76
2023/08/06 08:29:47;;;;;;;3.93;3.13;;;;;;;;;;5083003;28;20299;-77
2023/08/06 08:32:12;;;;;;;3.38;3.08;;;;;;;;;;5092250;28;20279;-77
2023/08/06 08:34:37;;;;;;;3.83;2.80;;;;;;;;;;5086242;28;20046;-76
2023/08/06 08:37:02;;;;;;;3.60;2.80;;;;;;;;;;5088064;28;20057;-76
2023/08/06 08:39:28;;;;;;;3.10;2.90;;;;;;;;;;5083610;28;20373;-77
2023/08/06 08:41:53;;;;;;;5.10;2.63;;;;;;;;;;5089013;28;20026;-76
2023/08/06 08:44:18;;;;;;;4.60;2.78;;;;;;;;;;5081775;28;20305;-78
2023/08/06 08:46:44;;;;;;;2.83;2.60;;;;;;;;;;5081532;28;20016;-78
2023/08/06 08:49:10;;;;;;;2.70;2.20;;;;;;;;;;5079851;28;20070;-80
2023/08/06 08:51:36;;;;;;;4.35;2.65;;;;;;;;;;5087876;28;20020;-77
2023/08/06 08:54:03;;;;;;;7.43;3.00;;;;;;;;;;5074166;28;20027;-77
2023/08/06 08:56:28;;;;;;;3.10;2.80;;;;;;;;;;5065121;28;20958;-79
2023/08/06 08:58:55;;;;;;;4.75;2.53;;;;;;;;;;5070276;28;20025;-79
2023/08/06 09:01:21;;;;;;;4.18;3.00;;;;;;;;;;5083706;28;20016;-77
2023/08/06 09:03:47;;;;;;;4.20;3.25;;;;;;;;;;5086575;28;20052;-78
2023/08/06 09:06:12;;;;;;;3.50;3.20;;;;;;;;;;5096959;28;20024;-79
2023/08/06 09:08:41;;;;;;;5.82;3.00;;;;;;;;;;5098599;28;20020;-77
2023/08/06 09:11:06;;;;;;;;;;;;;;;;;;5088520;28;20058;-78
2023/08/06 09:13:31;;;;;;;3.28;2.97;;;;;;;;;;5071019;28;19912;-85
2023/08/06 09:15:56;;;;;;;3.77;3.47;;;;;;;;;;5072593;28;20040;-80
2023/08/06 09:18:29;;;;;;;5.28;3.92;;;;;;;;;;5075753;28;20514;-79
2023/08/06 09:20:54;;;;;;;3.22;2.95;;;;;;;;;;5075354;28;20050;-81
2023/08/06 09:23:20;;;;;;;4.05;2.95;;;;;;;;;;5080109;28;20500;-78
2023/08/06 09:25:45;;;;;;;3.08;2.83;;;;;;;;;;5081856;28;20466;-76
2023/08/06 09:28:11;;;;;;;3.08;2.88;;;;;;;;;;5095933;28;20032;-82
2023/08/06 09:30:37;;;;;;;3.10;2.90;;;;;;;;;;5099076;28;20026;-78
2023/08/06 09:33:02;;;;;;;3.38;3.08;;;;;;;;;;5093051;28;20280;-79
2023/08/06 09:35:29;;;;;;;3.67;2.97;;;;;;;;;;5095580;28;20032;-79
2023/08/06 09:37:54;;;;;;;3.45;2.85;;;;;;;;;;5069808;28;20031;-78
2023/08/06 09:40:30;;;;;;;3.53;3.22;;;;;;;;;;5083216;28;20032;-78
2023/08/06 09:42:56;;;;;;;3.20;3.00;;;;;;;;;;5087067;28;20047;-80
2023/08/06 09:45:24;;;;;;;3.22;3.03;;;;;;;;;;5101736;28;20030;-81
2023/08/06 09:47:50;;;;;;;2.97;2.78;;;;;;;;;;5103142;28;20051;-78
2023/08/06 09:50:19;;;;;;;4.88;2.92;;;;;;;;;;5103462;27;20058;-77
2023/08/06 09:52:44;;;;;;;;;;;;;;;;;;5102717;27;20008;-77
2023/08/06 09:55:11;;;;;;;3.53;3.10;;;;;;;;;;5103839;28;19907;-79
2023/08/06 09:57:37;;;;;;;4.32;2.88;;;;;;;;;;5087456;28;20078;-78
2023/08/06 10:00:03;;;;;;;5.28;2.90;;;;;;;;;;5072348;28;20520;-78
2023/08/06 10:02:28;;;;;;;4.95;3.05;;;;;;;;;;5072405;28;20442;-80
2023/08/06 10:04:55;;;;;;;4.07;2.80;;;;;;;;;;5089253;28;20159;-79
2023/08/06 10:07:22;;;;;;;2.78;2.58;;;;;;;;;;5102620;27;20551;-79
2023/08/06 10:09:47;;;;;;;4.03;3.00;;;;;;;;;;5101600;28;20023;-77
2023/08/06 10:12:13;;;;;;;3.60;2.90;;;;;;;;;;5102744;28;20026;-79
2023/08/06 10:14:39;;;;;;;2.60;2.40;;;;;;;;;;5101070;28;20550;-79
2023/08/06 10:17:06;;;;;;;2.83;2.58;;;;;;;;;;5102724;28;20092;-79
2023/08/06 10:19:31;;;;;;;2.60;2.40;;;;;;;;;;5101703;28;20027;-76
2023/08/06 10:22:13;;;;;;;5.13;2.72;;;;;;;;;;5103229;28;20015;-78
2023/08/06 10:24:51;;;;;;;8.15;2.72;;;;;;;;;;5096931;28;20028;-77
2023/08/06 10:27:21;;;;;;;5.55;3.45;;;;;;;;;;5081881;28;20400;-79
2023/08/06 10:29:46;;;;;;;4.50;2.70;;;;;;;;;;5090062;28;20151;-80
2023/08/06 10:32:11;;;;;;;3.10;2.80;;;;;;;;;;5066980;28;20115;-78
2023/08/06 10:34:56;;;;;;;3.87;2.50;;;;;;;;;;5069108;28;20054;-79
2023/08/06 10:37:23;;;;;;;3.70;3.17;;;;;;;;;;5075958;28;20034;-80
2023/08/06 10:39:51;;;;;;;4.22;2.80;;;;;;;;;;5078066;28;20065;-77
2023/08/06 10:42:20;;;;;;;3.08;2.47;;;;;;;;;;5071052;28;20031;-76
2023/08/06 10:45:05;;;;;;;2.60;2.38;;;;;;;;;;5068139;28;20063;-76
2023/08/06 10:47:30;;;;;;;3.88;2.38;;;;;;;;;;5068371;28;20028;-78
2023/08/06 10:49:55;;;;;;;2.63;2.37;;;;;;;;;;5064878;28;20405;-79
2023/08/06 10:52:21;;;;;;;3.10;2.10;;;;;;;;;;5075735;28;20087;-76
2023/08/06 10:54:46;;;;;;;3.00;2.20;;;;;;;;;;5072010;28;20035;-79
2023/08/06 10:57:12;;;;;;;2.30;2.20;;;;;;;;;;5081468;28;20431;-79
2023/08/06 10:59:37;;;;;;;2.23;2.03;;;;;;;;;;5102284;28;20011;-77
2023/08/06 11:02:03;;;;;;;3.80;1.90;;;;;;;;;;5086005;28;20042;-78
2023/08/06 11:04:30;;;;;;;2.35;2.10;;;;;;;;;;5101789;28;20508;-78
2023/08/06 11:06:55;;;;;;;2.53;1.90;;;;;;;;;;5078948;28;20621;-77
2023/08/06 11:09:21;;;;;;;2.60;2.00;;;;;;;;;;5073045;28;20032;-80
2023/08/06 11:11:46;;;;;;;3.40;2.07;;;;;;;;;;5088158;28;20415;-79
2023/08/06 11:14:14;;;;;;;2.65;2.40;;;;;;;;;;5100304;28;20027;-78
2023/08/06 11:16:40;;;;;;;2.45;2.15;;;;;;;;;;5097899;28;20080;-79
2023/08/06 11:19:07;;;;;;;2.83;2.25;;;;;;;;;;5078821;28;20611;-79
2023/08/06 11:21:32;;;;;;;2.92;2.25;;;;;;;;;;5100744;28;20030;-77
2023/08/06 11:23:57;;;;;;;3.83;2.30;;;;;;;;;;5067911;28;20433;-78
2023/08/06 11:26:23;;;;;;;3.03;2.55;;;;;;;;;;5100403;28;20018;-81
2023/08/06 11:28:48;;;;;;;3.08;2.35;;;;;;;;;;5086440;28;20157;-80
2023/08/06 11:31:23;;;;;;;2.80;2.60;;;;;;;;;;5088231;28;20396;-79
2023/08/06 11:33:55;;;;;;;2.95;2.65;;;;;;;;;;5090061;28;20016;-78
2023/08/06 11:36:30;;;;;;;2.72;2.53;;;;;;;;;;5100260;28;20393;-80
2023/08/06 11:38:56;;;;;;;2.83;2.60;;;;;;;;;;5101789;28;20151;-80
2023/08/06 11:41:21;;;;;;;3.38;3.08;;;;;;;;;;5099572;28;20027;-77
2023/08/06 11:43:46;;;;;;;3.10;2.90;;;;;;;;;;5101322;28;20210;-80
2023/08/06 11:46:12;;;;;;;3.00;2.80;;;;;;;;;;5096999;28;20345;-78
2023/08/06 11:48:54;;;;;;;3.03;2.83;;;;;;;;;;5101176;28;20068;-80
2023/08/06 11:51:22;;;;;;;3.13;2.72;;;;;;;;;;5101726;28;20050;-79
2023/08/06 11:53:51;;;;;;;3.55;3.17;;;;;;;;;;5100141;28;20019;-81
2023/08/06 11:56:16;;;;;;;3.47;2.67;;;;;;;;;;5094776;28;20028;-78
2023/08/06 11:58:42;;;;;;;2.72;2.53;;;;;;;;;;5079966;28;20586;-78
2023/08/06 12:01:07;;;;;;;2.85;2.65;;;;;;;;;;5101093;28;20031;-78
2023/08/06 12:03:32;;;;;;;4.20;3.90;;;;;;;;;;5100261;28;20639;-76
2023/08/06 12:05:58;;;;;;;4.60;3.55;;;;;;;;;;5097269;28;20008;-82
2023/08/06 12:08:26;;;;;;;5.43;4.90;;;;;;;;;;5100385;28;20027;-80
2023/08/06 12:10:53;;;;;;;4.15;3.85;;;;;;;;;;5099780;28;20035;-80
2023/08/06 12:13:18;;;;;;;2.40;2.20;;;;;;;;;;5100890;28;20062;-85
2023/08/06 12:15:44;;;;;;;4.40;2.33;;;;;;;;;;5085979;28;20047;-77
2023/08/06 12:18:10;;;;;;;2.92;2.72;;;;;;;;;;5101331;28;20523;-81
2023/08/06 12:20:35;;;;;;;2.30;2.10;;;;;;;;;;5100461;28;20031;-83
2023/08/06 12:23:00;;;;;;;3.00;2.43;;;;;;;;;;5100274;28;20134;-78
2023/08/06 12:25:25;;;;;;;2.70;1.90;;;;;;;;;;5102919;28;20019;-78
2023/08/06 12:27:51;;;;;;;2.63;2.28;;;;;;;;;;5104711;28;20019;-80
2023/08/06 12:30:16;;;;;;;2.87;2.33;;;;;;;;;;5104564;28;20015;-79
2023/08/06 12:32:41;;;;;;;3.10;2.87;;;;;;;;;;5104103;28;20280;-80
2023/08/06 12:35:07;;;;;;;2.97;2.53;;;;;;;;;;5100939;28;20016;-77
2023/08/06 12:37:32;;;;;;;2.97;2.75;;;;;;;;;;5095013;28;20757;-80
2023/08/06 12:39:58;;;;;;;2.88;2.63;;;;;;;;;;5105144;28;20031;-77
2023/08/06 12:42:24;;;;;;;3.23;3.03;;;;;;;;;;5104659;28;20420;-78
2023/08/06 12:44:49;;;;;;;3.45;3.15;;;;;;;;;;5104466;28;20285;-77
2023/08/06 12:47:15;;;;;;;3.08;2.85;;;;;;;;;;5105423;28;20022;-78
2023/08/06 12:49:40;;;;;;;3.38;3.08;;;;;;;;;;5103934;28;20574;-79
2023/08/06 12:52:07;;;;;;;3.73;2.80;;;;;;;;;;5091432;28;20063;-79
2023/08/06 12:54:36;;;;;;;4.68;4.30;;;;;;;;;;5104088;28;20786;-80
2023/08/06 12:57:02;;;;;;;9.30;8.57;;;;;;;;;;5091105;28;20040;-77
2023/08/06 12:59:27;;;;;;;6.20;5.80;;;;;;;;;;5088878;28;20023;-79
2023/08/06 13:01:53;;;;;;;4.87;4.23;;;;;;;;;;5103409;28;20024;-80
2023/08/06 13:04:18;;;;;;;5.90;5.50;;;;;;;;;;5103330;28;20039;-79
2023/08/06 13:06:43;;;;;;;4.60;4.28;;;;;;;;;;5104099;28;20408;-79
2023/08/06 13:09:09;;;;;;;4.53;4.13;;;;;;;;;;5104022;28;20559;-87
2023/08/06 13:11:35;;;;;;;5.05;4.65;;;;;;;;;;5090878;28;20413;-81
2023/08/06 13:14:04;;;;;;;5.05;4.65;;;;;;;;;;5104930;28;20054;-80
2023/08/06 13:16:30;;;;;;;4.88;4.57;;;;;;;;;;5103543;28;20023;-80
2023/08/06 13:18:55;;;;;;;5.03;4.73;;;;;;;;;;5104968;28;20103;-82
2023/08/06 13:21:20;;;;;;;5.90;5.07;;;;;;;;;;5102252;28;20030;-80
2023/08/06 13:23:45;;;;;;;4.90;4.50;;;;;;;;;;5101612;28;20384;-82
2023/08/06 13:26:11;;;;;;;5.07;4.73;;;;;;;;;;5088902;28;20051;-80
2023/08/06 13:28:36;;;;;;;5.00;4.60;;;;;;;;;;5090834;28;20253;-82
2023/08/06 13:31:01;;;;;;;5.20;4.43;;;;;;;;;;5104686;28;20026;-82
2023/08/06 13:33:26;;;;;;;5.67;4.50;;;;;;;;;;5101520;28;20026;-82
2023/08/06 13:35:52;;;;;;;4.90;4.50;;;;;;;;;;5104170;28;20485;-80
2023/08/06 13:38:17;;;;;;;4.85;4.55;;;;;;;;;;5102457;28;20272;-81
2023/08/06 13:40:44;;;;;;;5.27;4.77;;;;;;;;;;5104521;28;20557;-80
2023/08/06 13:43:09;;;;;;;5.18;4.70;;;;;;;;;;5101874;28;20157;-82
2023/08/06 13:45:35;;;;;;;5.43;4.90;;;;;;;;;;5089623;28;20106;-80
2023/08/06 13:48:00;;;;;;;5.57;5.03;;;;;;;;;;5104241;28;20020;-85
2023/08/06 13:50:26;;;;;;;4.38;4.18;;;;;;;;;;5102905;28;20034;-81
2023/08/06 13:52:53;;;;;;;7.03;4.70;;;;;;;;;;5104046;28;20038;-80